Time;durP1;ratioP1;P1;durP2;ratioP2;P2;SDS_P1;SDS_P2;PMS_P1;PMS_P2;Temp;Humidity;BMP_temperature;BMP_pressure;BME280_temperature;BME280_humidity;BME280_pressure;Samples;Min_cycle;Max_cycle;Signal;HPM_P1;HPM_P2
2023/06/07 00:01:12;;;;;;;60.45;56.92;;;;;;;14.17;80.06;98349.75;5025029;28;20029;-77
2023/06/07 00:03:37;;;;;;;61.03;57.33;;;;;;;14.20;80.16;98347.34;5016064;28;20068;-77
2023/06/07 00:06:05;;;;;;;60.63;57.30;;;;;;;14.28;80.01;98349.53;5013123;28;20053;-77
2023/06/07 00:08:31;;;;;;;60.47;56.97;;;;;;;14.26;79.83;98346.28;4977485;28;20482;-75
2023/06/07 00:10:57;;;;;;;61.22;57.65;;;;;;;14.35;79.71;98354.75;4999519;28;20100;-77
2023/06/07 00:13:22;;;;;;;60.13;56.75;;;;;;;14.27;80.44;98352.50;5004095;28;20091;-77
2023/06/07 00:15:48;;;;;;;62.25;58.60;;;;;;;14.32;80.04;98352.56;5016748;28;20037;-77
2023/06/07 00:18:15;;;;;;;58.28;55.08;;;;;;;14.55;79.37;98354.81;5015349;28;20083;-76
2023/06/07 00:20:40;;;;;;;60.10;56.60;;;;;;;14.41;80.49;98351.78;4986423;28;20029;-77
2023/06/07 00:23:06;;;;;;;61.78;58.05;;;;;;;14.42;80.39;98355.31;4987937;28;20125;-77
2023/06/07 00:25:31;;;;;;;62.58;58.97;;;;;;;14.55;80.11;98360.25;5022693;28;20050;-78
2023/06/07 00:27:56;;;;;;;65.43;61.53;;;;;;;14.25;81.37;98357.38;4990447;28;20044;-77
2023/06/07 00:30:22;;;;;;;65.43;61.63;;;;;;;14.04;81.85;98356.47;4986324;28;20022;-76
2023/06/07 00:32:47;;;;;;;66.53;62.60;;;;;;;14.32;81.40;98356.09;4995859;28;20061;-76
2023/06/07 00:35:13;;;;;;;64.80;60.90;;;;;;;14.23;81.89;98356.84;4983273;28;20119;-77
2023/06/07 00:37:38;;;;;;;62.72;58.97;;;;;;;14.51;80.82;98357.28;5012500;28;20045;-77
2023/06/07 00:40:05;;;;;;;61.65;57.90;;;;;;;14.62;79.80;98352.69;4989580;28;20022;-77
2023/06/07 00:42:32;;;;;;;57.70;54.00;;;;;;;14.69;80.15;98355.97;4973768;28;20048;-78
2023/06/07 00:44:57;;;;;;;57.40;54.00;;;;;;;14.72;79.42;98352.72;4988487;28;20032;-78
2023/06/07 00:47:22;;;;;;;60.25;56.72;;;;;;;14.75;79.77;98351.38;4971515;28;20038;-78
2023/06/07 00:49:48;;;;;;;59.97;56.28;;;;;;;14.73;80.56;98346.19;4995640;28;20449;-78
2023/06/07 00:52:14;;;;;;;56.47;53.17;;;;;;;14.83;79.70;98342.69;4992075;28;20080;-77
2023/06/07 00:54:40;;;;;;;63.10;59.20;;;;;;;14.35;81.42;98349.34;4983282;28;20040;-77
2023/06/07 00:57:05;;;;;;;64.80;61.10;;;;;;;14.06;82.42;98348.06;4987489;28;20083;-77
2023/06/07 00:59:31;;;;;;;67.20;63.30;;;;;;;14.03;82.58;98346.69;5000165;28;20080;-78
2023/06/07 01:01:57;;;;;;;68.82;64.82;;;;;;;14.33;81.83;98346.06;4974528;28;20042;-77
2023/06/07 01:04:24;;;;;;;66.68;62.88;;;;;;;14.54;81.00;98342.34;5008924;28;20017;-78
2023/06/07 01:06:52;;;;;;;61.42;57.85;;;;;;;14.70;80.84;98349.47;4989133;28;20550;-77
2023/06/07 01:09:18;;;;;;;65.75;61.67;;;;;;;14.50;81.26;98347.50;4989548;28;20068;-78
2023/06/07 01:11:46;;;;;;;63.17;59.53;;;;;;;14.67;80.26;98333.72;5008149;28;20038;-78
2023/06/07 01:14:12;;;;;;;63.28;59.45;;;;;;;14.74;80.30;98347.03;5007722;28;20030;-77
2023/06/07 01:16:39;;;;;;;66.75;62.65;;;;;;;14.36;81.86;98334.69;4984575;28;20042;-78
2023/06/07 01:19:05;;;;;;;63.55;59.70;;;;;;;14.60;80.99;98335.88;4989314;28;20029;-78
2023/06/07 01:21:32;;;;;;;62.70;58.80;;;;;;;14.61;81.25;98344.81;4991859;28;20037;-78
2023/06/07 01:23:59;;;;;;;62.15;58.42;;;;;;;14.69;81.17;98345.13;4995185;28;20096;-78
2023/06/07 01:26:27;;;;;;;62.70;58.88;;;;;;;14.71;80.50;98337.53;5010407;28;20539;-77
2023/06/07 01:28:53;;;;;;;62.38;58.67;;;;;;;14.79;80.11;98345.16;4989256;28;20035;-78
2023/06/07 01:31:21;;;;;;;57.95;54.25;;;;;;;14.96;79.36;98340.28;4978518;28;20038;-78
2023/06/07 01:33:47;;;;;;;58.03;54.53;;;;;;;14.90;79.59;98335.94;5003883;28;20113;-78
2023/06/07 01:36:14;;;;;;;64.68;60.70;;;;;;;14.55;80.98;98338.56;4985373;28;20492;-78
2023/06/07 01:38:44;;;;;;;64.85;60.58;;;;;;;14.51;81.15;98332.06;4988301;28;20030;-78
2023/06/07 01:41:11;;;;;;;61.40;57.53;;;;;;;14.72;80.83;98338.34;4988815;28;20134;-78
2023/06/07 01:43:36;;;;;;;60.33;56.72;;;;;;;14.62;80.64;98336.41;4977636;28;20022;-76
2023/06/07 01:46:03;;;;;;;63.13;59.15;;;;;;;14.53;81.33;98335.31;4990353;28;20037;-77
2023/06/07 01:48:28;;;;;;;66.63;62.45;;;;;;;14.59;81.20;98336.94;5005009;28;20026;-76
2023/06/07 01:50:53;;;;;;;63.22;59.22;;;;;;;14.65;81.21;98341.31;4986284;28;20399;-77
2023/06/07 01:53:19;;;;;;;61.03;57.35;;;;;;;14.59;81.05;98325.28;5003406;28;20049;-77
2023/06/07 01:55:45;;;;;;;62.88;58.78;;;;;;;14.55;81.14;98322.31;5000950;28;20384;-78
2023/06/07 01:58:34;;;;;;;60.53;56.88;;;;;;;14.80;80.10;98330.50;5003933;28;20021;-77
2023/06/07 02:01:07;;;;;;;61.03;57.15;;;;;;;14.74;80.29;98326.16;4968853;28;20605;-77
2023/06/07 02:03:45;;;;;;;65.85;61.88;;;;;;;14.50;82.17;98320.38;4975471;28;20037;-79
2023/06/07 02:06:13;;;;;;;64.57;60.42;;;;;;;14.55;81.56;98322.31;4987846;28;20069;-78
2023/06/07 02:08:51;;;;;;;66.47;62.50;;;;;;;14.61;81.52;98321.22;5004868;28;20025;-78
2023/06/07 02:11:18;;;;;;;66.55;62.35;;;;;;;14.60;82.37;98319.59;4988533;28;20029;-77
2023/06/07 02:13:43;;;;;;;65.38;61.28;;;;;;;14.70;81.93;98322.34;5002998;28;20018;-77
2023/06/07 02:16:10;;;;;;;63.50;59.42;;;;;;;14.84;80.85;98315.31;5009750;28;20034;-77
2023/06/07 02:18:42;;;;;;;63.92;60.22;;;;;;;14.74;81.44;98326.16;4980660;28;20112;-77
2023/06/07 02:21:10;;;;;;;65.93;61.80;;;;;;;14.48;82.24;98336.09;4980869;28;20033;-77
2023/06/07 02:23:36;;;;;;;67.55;63.45;;;;;;;14.47;82.57;98333.66;4997759;28;20037;-77
2023/06/07 02:26:02;;;;;;;67.35;63.15;;;;;;;14.50;81.60;98325.00;4992422;28;20072;-77
2023/06/07 02:28:28;;;;;;;66.28;62.35;;;;;;;14.35;81.91;98319.53;4998418;28;20029;-77
2023/06/07 02:30:55;;;;;;;69.65;65.35;;;;;;;14.43;81.76;98336.09;4999739;28;20117;-76
2023/06/07 02:33:21;;;;;;;67.75;63.65;;;;;;;14.37;82.11;98330.91;4986987;28;20497;-77
2023/06/07 02:35:48;;;;;;;68.25;64.15;;;;;;;14.25;81.98;98322.16;4977253;28;20066;-77
2023/06/07 02:38:14;;;;;;;70.47;66.13;;;;;;;14.05;83.18;98322.09;4979275;28;20028;-76
2023/06/07 02:40:39;;;;;;;70.63;66.13;;;;;;;14.07;82.55;98325.34;5021643;28;20033;-76
2023/06/07 02:43:04;;;;;;;65.10;61.20;;;;;;;14.27;81.79;98325.41;4967841;28;20025;-77
2023/06/07 02:45:30;;;;;;;67.72;63.53;;;;;;;14.14;82.30;98320.50;4988522;28;20054;-75
2023/06/07 02:47:56;;;;;;;65.03;61.17;;;;;;;14.08;81.82;98321.53;5024876;28;20029;-76
2023/06/07 02:50:23;;;;;;;66.18;62.05;;;;;;;14.22;81.42;98319.97;4990744;28;20033;-77
2023/06/07 02:52:50;;;;;;;67.10;62.90;;;;;;;14.12;81.94;98325.38;4991030;28;20129;-78
2023/06/07 02:55:16;;;;;;;72.43;67.72;;;;;;;13.76;83.46;98325.16;4987670;28;20037;-78
2023/06/07 02:57:42;;;;;;;64.38;60.47;;;;;;;14.12;82.29;98317.25;4988418;28;20464;-77
2023/06/07 03:00:10;;;;;;;63.92;60.03;;;;;;;14.12;82.11;98317.25;4991027;28;20037;-76
2023/06/07 03:02:45;;;;;;;64.10;60.10;;;;;;;13.88;82.82;98317.63;4971404;28;20028;-76
2023/06/07 03:05:12;;;;;;;67.63;63.47;;;;;;;13.99;82.64;98331.25;4991618;28;20033;-76
2023/06/07 03:07:41;;;;;;;65.82;61.88;;;;;;;13.99;81.86;98323.13;4973068;28;20052;-76
2023/06/07 03:10:09;;;;;;;67.13;63.03;;;;;;;13.70;82.65;98315.38;4989871;28;20420;-77
2023/06/07 03:12:35;;;;;;;70.10;65.93;;;;;;;13.85;82.14;98323.59;5006085;28;20037;-77
2023/06/07 03:15:00;;;;;;;67.93;63.85;;;;;;;13.76;81.64;98324.34;4968151;28;20037;-76
2023/06/07 03:17:28;;;;;;;70.00;65.65;;;;;;;13.61;82.72;98335.06;4988231;28;20021;-77
2023/06/07 03:19:56;;;;;;;65.13;61.30;;;;;;;13.71;81.39;98332.44;5009376;28;20034;-76
2023/06/07 03:22:25;;;;;;;64.93;61.05;;;;;;;13.74;81.52;98338.16;5004204;28;20413;-79
2023/06/07 03:24:54;;;;;;;66.35;62.25;;;;;;;13.73;81.00;98325.69;4987086;28;20041;-76
2023/06/07 03:27:23;;;;;;;67.32;63.33;;;;;;;13.60;82.35;98326.16;5007491;28;20056;-78
2023/06/07 03:29:50;;;;;;;66.00;61.95;;;;;;;13.65;81.97;98323.44;4989020;28;20038;-78
2023/06/07 03:32:17;;;;;;;64.57;60.30;;;;;;;13.75;81.42;98323.53;4983121;28;20543;-77
2023/06/07 03:34:43;;;;;;;62.25;58.47;;;;;;;13.85;81.55;98334.44;4981658;28;20066;-78
2023/06/07 03:37:09;;;;;;;65.15;61.25;;;;;;;13.61;81.64;98332.34;4998433;28;20173;-78
2023/06/07 03:39:36;;;;;;;69.00;64.72;;;;;;;13.51;82.92;98326.91;4994728;28;20419;-77
2023/06/07 03:42:02;;;;;;;68.97;64.78;;;;;;;13.47;82.12;98332.00;4994032;28;20055;-77
2023/06/07 03:44:28;;;;;;;75.50;70.03;;;;;;;13.45;82.99;98326.03;4994165;28;20037;-77
2023/06/07 03:49:34;;;;;;;71.72;67.32;;;;;;;13.34;82.20;98331.63;5360766;22;20080;-76
2023/06/07 03:52:00;;;;;;;74.65;69.93;;;;;;;13.28;83.63;98341.56;5021554;28;20035;-76
2023/06/07 03:54:28;;;;;;;73.82;69.32;;;;;;;13.22;84.16;98333.69;5020830;28;20063;-78
2023/06/07 03:56:53;;;;;;;74.30;69.90;;;;;;;13.44;82.42;98331.72;5016849;28;20061;-78
2023/06/07 03:59:20;;;;;;;77.15;72.45;;;;;;;13.46;82.83;98335.78;4999996;28;20498;-77
2023/06/07 04:01:48;;;;;;;72.90;68.40;;;;;;;13.72;81.59;98340.28;5010954;28;20033;-77
2023/06/07 04:04:13;;;;;;;76.30;71.70;;;;;;;13.74;81.78;98338.16;4999913;28;20116;-77
2023/06/07 04:06:39;;;;;;;72.88;68.57;;;;;;;13.64;82.03;98331.84;5008198;28;20128;-77
2023/06/07 04:09:07;;;;;;;76.03;71.43;;;;;;;13.54;83.41;98343.41;5005514;28;20053;-78
2023/06/07 04:11:32;;;;;;;79.28;74.25;;;;;;;13.34;84.66;98337.03;5026903;28;20518;-78
2023/06/07 04:13:58;;;;;;;76.25;71.55;;;;;;;13.45;85.05;98338.72;5012097;28;20049;-77
2023/06/07 04:16:28;;;;;;;77.70;72.90;;;;;;;13.35;84.87;98352.19;5024701;28;20068;-77
2023/06/07 04:18:53;;;;;;;75.65;71.07;;;;;;;13.66;84.22;98346.75;5006125;28;20037;-78
2023/06/07 04:21:19;;;;;;;77.97;73.05;;;;;;;13.77;83.12;98334.91;5027623;28;20042;-79
2023/06/07 04:23:45;;;;;;;67.70;63.60;;;;;;;14.15;82.39;98338.34;5030291;28;20502;-79
2023/06/07 04:26:18;;;;;;;70.30;65.88;;;;;;;14.24;81.66;98336.78;5012064;28;20025;-78
2023/06/07 04:28:45;;;;;;;70.18;65.88;;;;;;;14.31;81.91;98337.38;5007601;28;20093;-78
2023/06/07 04:31:12;;;;;;;69.97;65.47;;;;;;;14.37;82.17;98339.03;5007612;28;20018;-78
2023/06/07 04:33:39;;;;;;;72.57;68.22;;;;;;;14.37;82.38;98333.63;5008221;28;20101;-78
2023/06/07 04:36:08;;;;;;;72.82;68.25;;;;;;;14.22;83.24;98339.75;5016307;28;20446;-78
2023/06/07 04:38:39;;;;;;;73.30;68.72;;;;;;;13.80;84.68;98347.94;5021408;28;20052;-78
2023/06/07 04:41:07;;;;;;;70.95;66.60;;;;;;;13.96;84.24;98345.28;5023494;28;20033;-78
2023/06/07 04:43:48;;;;;;;79.32;74.13;;;;;;;13.62;85.26;98344.81;4980314;28;20394;-78
2023/06/07 04:46:15;;;;;;;74.82;70.30;;;;;;;13.88;84.40;98344.72;5020685;28;20025;-78
2023/06/07 04:48:43;;;;;;;77.60;72.63;;;;;;;13.98;84.68;98349.38;5009544;28;20025;-77
2023/06/07 04:51:09;;;;;;;76.53;71.88;;;;;;;13.99;84.82;98344.78;5011232;28;20083;-78
2023/06/07 04:53:44;;;;;;;73.40;68.70;;;;;;;14.43;83.58;98346.91;5022515;28;20499;-77
2023/06/07 04:56:15;;;;;;;75.03;70.20;;;;;;;14.31;83.37;98338.19;5004454;28;20521;-79
2023/06/07 04:58:41;;;;;;;73.90;69.30;;;;;;;14.30;83.99;98346.59;5023209;28;20118;-79
2023/06/07 05:01:10;;;;;;;76.95;71.93;;;;;;;14.17;84.58;98355.16;5002121;28;20025;-79
2023/06/07 05:03:38;;;;;;;76.45;71.60;;;;;;;14.52;83.69;98355.34;5003217;28;20030;-79
2023/06/07 05:06:05;;;;;;;71.93;67.43;;;;;;;14.66;82.87;98351.06;5029077;28;20029;-78
2023/06/07 05:08:30;;;;;;;72.93;68.38;;;;;;;14.64;82.93;98360.53;5025559;28;20082;-79
2023/06/07 05:10:56;;;;;;;73.85;69.25;;;;;;;14.84;82.63;98364.13;5004371;28;20024;-79
2023/06/07 05:13:21;;;;;;;68.82;64.60;;;;;;;15.21;81.90;98359.31;5002215;28;20500;-77
2023/06/07 05:15:50;;;;;;;67.43;63.03;;;;;;;15.43;81.15;98358.22;5023457;28;20542;-78
2023/06/07 05:23:44;;;;;;;69.07;64.95;;;;;;;15.33;82.10;98347.38;5048421;28;20122;-77
2023/06/07 05:26:31;;;;;;;72.43;67.93;;;;;;;15.13;83.54;98353.59;5018599;28;20033;-77
2023/06/07 05:28:56;;;;;;;75.07;70.25;;;;;;;15.14;83.99;98347.09;5028012;28;20080;-79
2023/06/07 05:31:22;;;;;;;75.30;70.53;;;;;;;15.75;82.46;98369.66;5007190;28;20064;-77
2023/06/07 05:33:48;;;;;;;72.47;67.72;;;;;;;15.74;82.52;98357.16;5010264;28;20037;-76
2023/06/07 05:36:16;;;;;;;70.43;66.03;;;;;;;16.09;81.40;98357.09;5012991;28;20688;-77
2023/06/07 05:47:25;;;;;;;68.05;63.55;;;;;;;16.21;81.41;98338.59;4936987;29;20054;-74
2023/06/07 05:49:52;;;;;;;66.95;62.33;;;;;;;16.45;80.88;98346.94;5011674;28;20557;-74
2023/06/07 05:52:18;;;;;;;71.15;66.28;;;;;;;16.56;80.48;98353.97;4997200;28;20116;-77
2023/06/07 05:54:49;;;;;;;64.05;59.75;;;;;;;17.04;78.49;98355.06;5016605;28;20029;-77
2023/06/07 05:57:15;;;;;;;57.47;53.38;;;;;;;17.50;76.86;98355.56;4989363;28;20038;-74
2023/06/07 05:59:40;;;;;;;56.35;52.20;;;;;;;17.31;76.46;98344.53;5033135;28;20033;-77
2023/06/07 06:02:07;;;;;;;58.60;54.38;;;;;;;17.31;76.84;98352.72;5002202;28;20041;-76
2023/06/07 06:04:32;;;;;;;61.28;56.78;;;;;;;17.16;77.52;98352.81;5014939;28;20032;-77
2023/06/07 06:07:00;;;;;;;62.00;57.42;;;;;;;17.33;77.92;98355.13;4992766;28;20422;-77
2023/06/07 06:09:26;;;;;;;64.07;59.72;;;;;;;17.12;78.40;98354.47;4993334;28;20111;-76
2023/06/07 06:11:51;;;;;;;62.38;57.97;;;;;;;17.37;77.66;98354.28;5023977;28;20092;-76
2023/06/07 06:14:17;;;;;;;62.13;57.85;;;;;;;17.61;77.00;98362.56;5018186;28;20030;-77
2023/06/07 06:16:42;;;;;;;64.35;59.72;;;;;;;17.34;77.56;98360.28;5023389;28;20384;-76
2023/06/07 06:19:08;;;;;;;58.10;53.63;;;;;;;17.37;77.07;98364.34;5001658;28;20021;-76
2023/06/07 06:21:33;;;;;;;59.45;55.25;;;;;;;17.59;77.87;98349.25;5002485;28;20116;-76
2023/06/07 06:24:00;;;;;;;60.58;56.17;;;;;;;17.55;76.85;98361.78;5032625;28;20463;-76
2023/06/07 06:26:27;;;;;;;53.25;49.13;;;;;;;17.62;76.04;98365.00;5034196;28;20052;-77
2023/06/07 06:28:52;;;;;;;55.10;50.90;;;;;;;18.11;75.66;98355.81;5001865;28;20030;-77
2023/06/07 06:31:18;;;;;;;49.20;45.40;;;;;;;18.30;74.03;98352.03;5016537;28;20116;-77
2023/06/07 06:33:43;;;;;;;48.05;44.00;;;;;;;18.26;74.07;98359.19;5033861;28;20017;-76
2023/06/07 06:36:08;;;;;;;47.10;43.42;;;;;;;18.71;73.80;98360.59;5034044;28;20040;-76
2023/06/07 06:38:34;;;;;;;47.60;43.65;;;;;;;18.17;74.40;98355.47;5016265;28;20406;-77
2023/06/07 06:41:00;;;;;;;45.65;41.85;;;;;;;18.36;73.38;98348.19;5008518;28;20044;-77
2023/06/07 06:43:25;;;;;;;39.05;35.85;;;;;;;18.75;71.94;98353.44;5015787;28;20021;-77
2023/06/07 06:45:56;;;;;;;38.50;35.38;;;;;;;18.84;71.53;98357.13;5000744;28;20087;-77
2023/06/07 06:48:22;;;;;;;37.85;34.65;;;;;;;19.13;71.38;98352.34;5026323;28;20065;-77
2023/06/07 06:50:49;;;;;;;37.38;34.17;;;;;;;18.47;72.83;98354.34;5015025;28;20503;-76
2023/06/07 06:53:15;;;;;;;36.33;33.13;;;;;;;18.84;71.70;98357.13;5011087;28;20045;-77
2023/06/07 06:55:40;;;;;;;33.63;30.30;;;;;;;19.22;69.06;98358.78;5023335;28;20033;-77
2023/06/07 06:58:05;;;;;;;38.78;35.13;;;;;;;18.89;70.62;98354.34;5011600;28;20037;-77
2023/06/07 07:00:35;;;;;;;34.25;31.15;;;;;;;19.11;71.19;98360.00;5020469;28;20049;-77
2023/06/07 07:03:01;;;;;;;29.58;26.65;;;;;;;19.05;69.95;98358.47;5001121;28;20115;-76
2023/06/07 07:05:26;;;;;;;31.35;28.65;;;;;;;18.53;71.60;98364.06;5001847;28;20064;-77
2023/06/07 07:07:51;;;;;;;27.75;25.45;;;;;;;18.92;70.30;98372.03;4999733;28;20038;-77
2023/06/07 07:10:18;;;;;;;31.35;28.55;;;;;;;18.74;71.24;98362.72;5006090;28;20073;-77
2023/06/07 07:12:44;;;;;;;29.10;26.52;;;;;;;18.84;70.16;98373.50;5006135;28;20195;-77
2023/06/07 07:15:10;;;;;;;28.88;26.42;;;;;;;18.79;70.33;98365.38;4984898;28;20650;-77
2023/06/07 07:17:45;;;;;;;27.35;24.90;;;;;;;18.97;69.09;98371.97;5012702;28;20124;-77
2023/06/07 07:20:11;;;;;;;26.30;23.70;;;;;;;19.69;67.48;98356.97;5011714;28;20038;-77
2023/06/07 07:22:36;;;;;;;23.95;21.55;;;;;;;19.36;67.35;98367.06;4993936;28;20084;-77
2023/06/07 07:25:01;;;;;;;26.23;23.65;;;;;;;19.38;68.06;98366.75;5021018;28;20038;-77
2023/06/07 07:27:27;;;;;;;25.75;23.20;;;;;;;19.09;68.62;98367.69;5024214;28;20024;-77
2023/06/07 07:29:52;;;;;;;26.17;23.52;;;;;;;19.38;67.93;98359.38;5006250;28;20037;-77
2023/06/07 07:32:18;;;;;;;26.50;23.90;;;;;;;19.05;68.90;98369.38;5027808;28;20021;-78
2023/06/07 07:34:43;;;;;;;27.25;24.27;;;;;;;19.24;68.21;98372.94;5004334;28;20144;-77
2023/06/07 07:37:09;;;;;;;27.20;24.35;;;;;;;18.94;68.86;98373.38;5018140;28;20032;-77
2023/06/07 07:39:34;;;;;;;28.60;25.65;;;;;;;18.88;69.29;98374.53;5020276;28;20384;-78
2023/06/07 07:42:00;;;;;;;27.48;24.63;;;;;;;19.12;68.46;98372.56;4999478;28;20021;-77
2023/06/07 07:44:25;;;;;;;25.10;22.40;;;;;;;19.24;67.35;98372.94;5017663;28;20048;-77
2023/06/07 07:46:50;;;;;;;29.05;23.98;;;;;;;19.29;67.75;98377.50;5031886;28;20029;-77
2023/06/07 07:49:16;;;;;;;24.52;22.17;;;;;;;19.54;67.25;98373.59;5018029;28;20067;-77
2023/06/07 07:51:41;;;;;;;23.40;20.92;;;;;;;19.78;66.03;98375.09;5032599;28;20025;-77
2023/06/07 07:54:07;;;;;;;21.75;19.55;;;;;;;19.86;65.53;98374.41;5004643;28;20041;-77
2023/06/07 07:56:33;;;;;;;22.60;20.17;;;;;;;19.75;66.21;98366.69;5026739;28;20030;-77
2023/06/07 07:58:58;;;;;;;23.83;19.73;;;;;;;20.22;64.75;98377.34;5029658;28;20046;-77
2023/06/07 08:01:23;;;;;;;22.38;18.58;;;;;;;20.32;63.68;98379.09;5024759;28;20558;-77
2023/06/07 08:03:49;;;;;;;21.23;18.75;;;;;;;20.23;63.58;98365.31;5003344;28;20041;-77
2023/06/07 08:06:15;;;;;;;23.95;17.15;;;;;;;19.82;64.23;98378.03;4998098;28;20017;-77
2023/06/07 08:08:40;;;;;;;21.10;17.75;;;;;;;20.14;62.99;98380.72;5020809;28;20422;-77
2023/06/07 08:11:06;;;;;;;19.25;17.13;;;;;;;20.18;62.55;98370.84;4999215;28;20033;-77
2023/06/07 08:13:31;;;;;;;20.90;17.05;;;;;;;20.31;62.74;98364.59;4997536;28;20099;-77
2023/06/07 08:15:57;;;;;;;17.65;15.63;;;;;;;20.43;62.89;98367.63;5013885;28;20025;-75
2023/06/07 08:18:22;;;;;;;18.30;15.73;;;;;;;20.52;61.60;98371.28;5014524;28;20403;-77
2023/06/07 08:20:48;;;;;;;18.73;15.98;;;;;;;20.29;62.49;98357.78;4998001;28;20025;-77
2023/06/07 08:23:13;;;;;;;16.85;15.05;;;;;;;20.60;62.70;98367.84;5002042;28;20029;-78
2023/06/07 08:25:39;;;;;;;16.98;15.27;;;;;;;20.89;63.46;98361.19;5012231;28;20480;-77
2023/06/07 08:28:04;;;;;;;18.83;16.80;;;;;;;21.10;62.64;98359.66;5005989;28;20033;-78
2023/06/07 08:30:30;;;;;;;18.55;15.95;;;;;;;20.79;62.71;98354.03;5014468;28;20025;-77
2023/06/07 08:32:55;;;;;;;18.27;16.38;;;;;;;20.47;62.94;98356.88;5031529;28;20115;-77
2023/06/07 08:35:21;;;;;;;15.80;13.73;;;;;;;20.86;61.21;98359.91;5028522;28;20021;-77
2023/06/07 08:37:46;;;;;;;17.00;15.18;;;;;;;20.76;62.75;98359.31;5014118;28;20034;-77
2023/06/07 08:40:12;;;;;;;13.07;11.77;;;;;;;20.73;61.23;98359.91;5026826;28;20464;-77
2023/06/07 08:42:38;;;;;;;12.75;9.55;;;;;;;20.93;58.80;98359.47;5019936;28;20025;-77
2023/06/07 08:45:04;;;;;;;12.23;9.63;;;;;;;20.53;59.25;98367.44;5016398;28;20111;-77
2023/06/07 08:47:30;;;;;;;9.98;8.98;;;;;;;20.93;57.92;98367.69;5002776;28;20030;-78
2023/06/07 08:49:56;;;;;;;9.43;8.48;;;;;;;21.15;56.79;98362.28;5017705;28;20145;-77
2023/06/07 08:52:25;;;;;;;8.82;7.93;;;;;;;21.05;56.72;98363.31;5005134;28;20472;-77
2023/06/07 08:54:53;;;;;;;8.55;7.65;;;;;;;21.24;56.00;98355.78;5013528;28;20029;-77
2023/06/07 08:57:18;;;;;;;8.55;7.55;;;;;;;21.34;56.45;98360.22;5013949;28;20079;-76
2023/06/07 08:59:45;;;;;;;9.05;7.88;;;;;;;21.21;55.89;98363.81;5014032;28;20033;-76
2023/06/07 09:02:12;;;;;;;8.90;7.82;;;;;;;21.27;55.82;98360.63;5021237;28;20069;-76
2023/06/07 09:04:41;;;;;;;9.98;8.10;;;;;;;21.39;56.55;98362.84;5024313;28;20021;-77
2023/06/07 09:07:10;;;;;;;7.85;6.97;;;;;;;21.68;56.21;98359.66;4997613;28;20033;-76
2023/06/07 09:09:36;;;;;;;8.75;7.75;;;;;;;21.75;55.77;98358.09;5014018;28;20125;-77
2023/06/07 09:12:02;;;;;;;9.35;8.15;;;;;;;21.50;55.63;98358.72;5003881;28;20116;-76
2023/06/07 09:14:29;;;;;;;8.65;7.75;;;;;;;22.02;55.47;98360.72;4996890;28;20425;-76
2023/06/07 09:16:56;;;;;;;9.80;8.20;;;;;;;22.66;53.69;98356.47;5021331;28;20087;-77
2023/06/07 09:19:34;;;;;;;9.20;8.30;;;;;;;23.20;52.21;98355.13;5017372;28;20484;-77
2023/06/07 09:22:04;;;;;;;8.60;7.70;;;;;;;23.28;51.34;98357.06;5031566;28;20034;-77
2023/06/07 09:24:30;;;;;;;9.60;8.55;;;;;;;23.21;51.57;98362.25;5001745;28;20021;-77
2023/06/07 09:26:56;;;;;;;12.05;8.48;;;;;;;23.48;51.99;98360.34;5014448;28;20480;-77
2023/06/07 09:29:22;;;;;;;8.57;7.68;;;;;;;23.49;50.80;98353.69;4997257;28;20029;-76
2023/06/07 09:31:48;;;;;;;10.07;8.50;;;;;;;23.68;50.69;98359.66;5034147;28;20033;-77
2023/06/07 09:34:21;;;;;;;9.50;8.38;;;;;;;22.26;52.15;98359.53;5027613;28;20032;-77
2023/06/07 09:36:57;;;;;;;10.52;8.23;;;;;;;23.25;51.70;98354.97;5017276;28;20123;-77
2023/06/07 09:39:30;;;;;;;10.38;9.23;;;;;;;22.62;52.92;98368.41;5005301;28;20033;-77
2023/06/07 09:41:56;;;;;;;9.45;8.45;;;;;;;22.58;53.19;98364.66;5014713;28;20033;-77
2023/06/07 09:44:26;;;;;;;8.90;7.70;;;;;;;22.91;52.45;98360.44;5013421;28;20391;-76
2023/06/07 09:46:55;;;;;;;10.25;8.65;;;;;;;22.77;52.87;98370.75;5029503;28;20034;-77
2023/06/07 09:49:26;;;;;;;10.48;9.25;;;;;;;23.04;52.31;98367.72;5020787;28;20041;-76
2023/06/07 09:51:55;;;;;;;11.13;9.63;;;;;;;22.92;51.96;98367.53;5022406;28;20513;-77
2023/06/07 09:54:38;;;;;;;11.80;9.50;;;;;;;23.72;49.63;98363.38;5022632;28;20032;-77
2023/06/07 09:57:09;;;;;;;9.63;8.60;;;;;;;23.67;50.08;98355.28;5006706;28;20048;-77
2023/06/07 09:59:38;;;;;;;9.63;8.63;;;;;;;23.82;50.01;98363.06;4987353;28;20034;-77
2023/06/07 10:02:36;;;;;;;9.80;8.80;;;;;;;23.10;50.47;98358.19;5025235;28;20036;-76
2023/06/07 10:05:02;;;;;;;9.50;8.50;;;;;;;24.06;49.17;98355.09;4992026;28;20060;-77
2023/06/07 10:07:33;;;;;;;10.90;9.18;;;;;;;23.46;50.98;98354.34;5039792;28;20436;-77
2023/06/07 10:10:00;;;;;;;9.73;8.80;;;;;;;23.67;49.86;98358.03;4996595;28;20029;-77
2023/06/07 10:12:30;;;;;;;8.90;8.00;;;;;;;23.30;50.17;98341.06;4996735;28;20063;-76
2023/06/07 10:14:59;;;;;;;10.50;7.93;;;;;;;24.26;49.23;98348.88;4996932;28;20046;-77
2023/06/07 10:17:28;;;;;;;10.40;7.88;;;;;;;24.88;48.12;98340.03;5010061;28;20494;-75
2023/06/07 10:19:59;;;;;;;9.68;8.43;;;;;;;25.28;47.83;98338.41;4989823;28;20040;-77
2023/06/07 10:22:30;;;;;;;8.40;7.47;;;;;;;24.78;46.22;98341.22;5013393;28;20108;-77
2023/06/07 10:25:07;;;;;;;12.68;8.55;;;;;;;25.10;45.78;98343.25;5023506;28;20116;-77
2023/06/07 10:27:48;;;;;;;9.05;7.47;;;;;;;25.17;45.28;98343.53;5012386;28;20026;-77
2023/06/07 10:30:16;;;;;;;7.97;7.18;;;;;;;24.08;47.50;98344.56;5004160;28;20509;-77
2023/06/07 10:32:42;;;;;;;8.85;7.80;;;;;;;24.21;46.97;98337.22;5025134;28;20520;-77
2023/06/07 10:35:09;;;;;;;8.50;6.80;;;;;;;24.34;45.73;98337.00;4988976;28;20038;-77
2023/06/07 10:37:40;;;;;;;6.60;6.00;;;;;;;24.69;44.33;98332.94;4996482;28;20030;-76
2023/06/07 10:40:10;;;;;;;9.55;7.18;;;;;;;24.71;45.92;98325.16;5018592;28;20108;-76
2023/06/07 10:42:44;;;;;;;8.77;6.50;;;;;;;25.11;43.95;98330.28;5016841;28;20403;-76
2023/06/07 10:45:14;;;;;;;6.57;5.97;;;;;;;24.38;45.06;98326.97;5024474;28;20034;-76
2023/06/07 10:47:40;;;;;;;6.70;6.10;;;;;;;24.22;45.98;98327.84;5014005;28;20124;-77
2023/06/07 10:50:06;;;;;;;6.25;5.63;;;;;;;24.17;44.89;98323.34;5001284;28;20155;-77
2023/06/07 10:52:32;;;;;;;6.97;6.28;;;;;;;23.77;45.58;98321.97;5020575;28;20025;-77
2023/06/07 10:54:57;;;;;;;6.60;6.00;;;;;;;23.17;47.23;98330.22;5029518;28;20545;-77
2023/06/07 10:57:36;;;;;;;7.35;6.47;;;;;;;23.29;47.38;98322.94;5015726;28;20045;-77
2023/06/07 11:00:24;;;;;;;7.00;6.32;;;;;;;23.77;45.94;98321.97;4994495;28;20652;-77
2023/06/07 11:02:50;;;;;;;7.30;6.60;;;;;;;23.93;46.63;98315.59;5019222;28;20030;-77
2023/06/07 11:05:15;;;;;;;9.23;7.03;;;;;;;24.04;45.95;98316.03;5015398;28;20487;-77
2023/06/07 11:07:47;;;;;;;6.32;5.70;;;;;;;24.56;45.74;98317.47;5030685;28;20034;-77
2023/06/07 11:10:15;;;;;;;6.95;6.32;;;;;;;23.91;46.98;98317.06;5002575;28;20037;-77
2023/06/07 11:12:44;;;;;;;6.90;6.28;;;;;;;23.63;47.76;98318.59;5014196;28;20032;-76
2023/06/07 11:15:35;;;;;;;6.65;6.05;;;;;;;24.05;46.96;98323.19;5031886;28;20037;-77
2023/06/07 11:18:07;;;;;;;6.90;6.25;;;;;;;24.00;45.74;98312.34;5026811;28;20077;-77
2023/06/07 11:20:36;;;;;;;7.32;6.63;;;;;;;24.21;46.45;98315.22;4999278;28;20128;-76
2023/06/07 11:23:29;;;;;;;7.72;6.28;;;;;;;23.91;46.40;98311.56;5032554;28;20021;-77
2023/06/07 11:26:11;;;;;;;6.50;5.90;;;;;;;25.09;42.85;98297.53;5003214;28;20068;-77
2023/06/07 11:28:41;;;;;;;6.40;5.80;;;;;;;24.64;44.24;98297.31;5025631;28;20103;-76
2023/06/07 11:31:11;;;;;;;7.10;5.80;;;;;;;25.28;43.39;98288.78;5015302;28;20131;-76
2023/06/07 11:33:37;;;;;;;6.80;6.13;;;;;;;25.43;43.98;98279.91;5014229;28;20052;-75
2023/06/07 11:36:05;;;;;;;6.93;6.22;;;;;;;25.33;43.69;98292.16;5016549;28;20030;-77
2023/06/07 11:38:31;;;;;;;6.90;6.20;;;;;;;25.04;43.85;98294.19;5031918;28;20462;-76
2023/06/07 11:40:57;;;;;;;8.50;6.20;;;;;;;24.29;45.43;98287.66;4999228;28;20080;-76